sensor_id;sensor_type;location;lat;lon;timestamp;temperature;humidity
10431;DHT22;5262;59.958;17.726;2023-12-20T00:00:58;-2.20;99.90
10431;DHT22;5262;59.958;17.726;2023-12-20T00:03:24;-2.20;99.90
10431;DHT22;5262;59.958;17.726;2023-12-20T00:05:50;-2.20;99.90
10431;DHT22;5262;59.958;17.726;2023-12-20T00:08:16;-2.10;99.90
10431;DHT22;5262;59.958;17.726;2023-12-20T00:10:42;-2.20;99.90
10431;DHT22;5262;59.958;17.726;2023-12-20T00:13:08;-2.10;99.90
10431;DHT22;5262;59.958;17.726;2023-12-20T00:15:34;-2.10;99.90
10431;DHT22;5262;59.958;17.726;2023-12-20T00:18:00;-2.20;99.90
10431;DHT22;5262;59.958;17.726;2023-12-20T00:20:26;-2.10;99.90
10431;DHT22;5262;59.958;17.726;2023-12-20T00:22:54;-2.10;99.90
10431;DHT22;5262;59.958;17.726;2023-12-20T00:25:20;-2.10;99.90
10431;DHT22;5262;59.958;17.726;2023-12-20T00:27:45;-2.20;99.90
10431;DHT22;5262;59.958;17.726;2023-12-20T00:30:11;-2.30;99.90
10431;DHT22;5262;59.958;17.726;2023-12-20T00:32:37;-2.30;99.90
10431;DHT22;5262;59.958;17.726;2023-12-20T00:35:03;-2.40;99.90
10431;DHT22;5262;59.958;17.726;2023-12-20T00:37:29;-2.40;99.90
10431;DHT22;5262;59.958;17.726;2023-12-20T00:39:55;-2.40;99.90
10431;DHT22;5262;59.958;17.726;2023-12-20T00:42:20;-2.40;99.90
10431;DHT22;5262;59.958;17.726;2023-12-20T00:44:46;-2.40;99.90
10431;DHT22;5262;59.958;17.726;2023-12-20T00:47:12;-2.50;99.90
10431;DHT22;5262;59.958;17.726;2023-12-20T00:49:38;-2.50;99.90
10431;DHT22;5262;59.958;17.726;2023-12-20T00:52:04;-2.50;99.90
10431;DHT22;5262;59.958;17.726;2023-12-20T00:54:30;-2.60;99.90
10431;DHT22;5262;59.958;17.726;2023-12-20T00:56:56;-2.70;99.90
10431;DHT22;5262;59.958;17.726;2023-12-20T00:59:22;-2.80;99.90
10431;DHT22;5262;59.958;17.726;2023-12-20T01:01:47;-2.80;99.90
10431;DHT22;5262;59.958;17.726;2023-12-20T01:04:13;-2.70;99.90
10431;DHT22;5262;59.958;17.726;2023-12-20T01:06:38;-2.70;99.90
10431;DHT22;5262;59.958;17.726;2023-12-20T01:09:04;-2.70;99.90
10431;DHT22;5262;59.958;17.726;2023-12-20T01:11:30;-2.60;99.90
10431;DHT22;5262;59.958;17.726;2023-12-20T01:13:55;-2.50;99.90
10431;DHT22;5262;59.958;17.726;2023-12-20T01:16:21;-2.60;99.90
10431;DHT22;5262;59.958;17.726;2023-12-20T01:18:46;-2.70;99.90
10431;DHT22;5262;59.958;17.726;2023-12-20T01:21:12;-2.70;99.90
10431;DHT22;5262;59.958;17.726;2023-12-20T01:23:38;-2.80;99.90
10431;DHT22;5262;59.958;17.726;2023-12-20T01:26:03;-2.70;99.90
10431;DHT22;5262;59.958;17.726;2023-12-20T01:28:30;-2.80;99.90
10431;DHT22;5262;59.958;17.726;2023-12-20T01:30:57;-2.80;99.90
10431;DHT22;5262;59.958;17.726;2023-12-20T01:33:23;-2.90;99.90
10431;DHT22;5262;59.958;17.726;2023-12-20T01:35:48;-2.90;99.90
10431;DHT22;5262;59.958;17.726;2023-12-20T01:38:14;-3.00;99.90
10431;DHT22;5262;59.958;17.726;2023-12-20T01:40:39;-3.00;99.90
10431;DHT22;5262;59.958;17.726;2023-12-20T01:43:07;-3.10;99.90
10431;DHT22;5262;59.958;17.726;2023-12-20T01:45:34;-3.10;99.90
10431;DHT22;5262;59.958;17.726;2023-12-20T01:48:00;-3.10;99.90
10431;DHT22;5262;59.958;17.726;2023-12-20T01:50:28;-3.10;99.90
10431;DHT22;5262;59.958;17.726;2023-12-20T01:52:56;-3.20;99.90
10431;DHT22;5262;59.958;17.726;2023-12-20T01:55:24;-3.20;99.90
10431;DHT22;5262;59.958;17.726;2023-12-20T01:57:50;-3.20;99.90
10431;DHT22;5262;59.958;17.726;2023-12-20T02:00:16;-3.20;99.90
10431;DHT22;5262;59.958;17.726;2023-12-20T02:02:44;-3.20;99.90
10431;DHT22;5262;59.958;17.726;2023-12-20T02:05:11;-3.20;99.90
10431;DHT22;5262;59.958;17.726;2023-12-20T02:07:36;-3.30;99.90
10431;DHT22;5262;59.958;17.726;2023-12-20T02:10:02;-3.30;99.90
10431;DHT22;5262;59.958;17.726;2023-12-20T02:12:30;-3.30;99.90
10431;DHT22;5262;59.958;17.726;2023-12-20T02:14:55;-3.30;99.90
10431;DHT22;5262;59.958;17.726;2023-12-20T02:17:22;-3.40;99.90
10431;DHT22;5262;59.958;17.726;2023-12-20T02:19:47;-3.50;99.90
10431;DHT22;5262;59.958;17.726;2023-12-20T02:22:13;-3.70;99.90
10431;DHT22;5262;59.958;17.726;2023-12-20T02:24:39;-3.80;99.90
10431;DHT22;5262;59.958;17.726;2023-12-20T02:27:08;-3.90;99.90
10431;DHT22;5262;59.958;17.726;2023-12-20T02:29:34;-3.80;99.90
10431;DHT22;5262;59.958;17.726;2023-12-20T02:32:00;-3.80;99.90
10431;DHT22;5262;59.958;17.726;2023-12-20T02:34:26;-3.60;99.90
10431;DHT22;5262;59.958;17.726;2023-12-20T02:36:52;-3.50;99.90
10431;DHT22;5262;59.958;17.726;2023-12-20T02:39:20;-3.40;99.90
10431;DHT22;5262;59.958;17.726;2023-12-20T02:41:46;-3.30;99.90
10431;DHT22;5262;59.958;17.726;2023-12-20T02:44:12;-3.30;99.90
10431;DHT22;5262;59.958;17.726;2023-12-20T02:46:38;-3.30;99.90
10431;DHT22;5262;59.958;17.726;2023-12-20T02:49:03;-3.20;99.90
10431;DHT22;5262;59.958;17.726;2023-12-20T02:51:29;-3.20;99.90
10431;DHT22;5262;59.958;17.726;2023-12-20T02:53:55;-3.30;99.90
10431;DHT22;5262;59.958;17.726;2023-12-20T02:56:20;-3.30;99.90
10431;DHT22;5262;59.958;17.726;2023-12-20T02:58:46;-3.30;99.90
10431;DHT22;5262;59.958;17.726;2023-12-20T03:01:11;-3.40;99.90
10431;DHT22;5262;59.958;17.726;2023-12-20T03:03:37;-3.40;99.90
10431;DHT22;5262;59.958;17.726;2023-12-20T03:06:03;-3.40;99.90
10431;DHT22;5262;59.958;17.726;2023-12-20T03:08:28;-3.40;99.90
10431;DHT22;5262;59.958;17.726;2023-12-20T03:10:54;-3.50;99.90
10431;DHT22;5262;59.958;17.726;2023-12-20T03:13:19;-3.50;99.90
10431;DHT22;5262;59.958;17.726;2023-12-20T03:15:45;-3.50;99.90
10431;DHT22;5262;59.958;17.726;2023-12-20T03:18:11;-3.50;99.90
10431;DHT22;5262;59.958;17.726;2023-12-20T03:20:37;-3.60;99.90
10431;DHT22;5262;59.958;17.726;2023-12-20T03:23:03;-3.50;99.90
10431;DHT22;5262;59.958;17.726;2023-12-20T03:25:29;-3.50;99.90
10431;DHT22;5262;59.958;17.726;2023-12-20T03:27:54;-3.50;99.90
10431;DHT22;5262;59.958;17.726;2023-12-20T03:30:20;-3.50;99.90
10431;DHT22;5262;59.958;17.726;2023-12-20T03:32:46;-3.50;99.90
10431;DHT22;5262;59.958;17.726;2023-12-20T03:35:12;-3.50;99.90
10431;DHT22;5262;59.958;17.726;2023-12-20T03:37:38;-3.60;99.90
10431;DHT22;5262;59.958;17.726;2023-12-20T03:40:04;-3.60;99.90
10431;DHT22;5262;59.958;17.726;2023-12-20T03:42:30;-3.60;99.90
10431;DHT22;5262;59.958;17.726;2023-12-20T03:44:56;-3.60;99.90
10431;DHT22;5262;59.958;17.726;2023-12-20T03:47:22;-3.60;99.90
10431;DHT22;5262;59.958;17.726;2023-12-20T03:49:48;-3.60;99.90
10431;DHT22;5262;59.958;17.726;2023-12-20T03:52:13;-3.60;99.90
10431;DHT22;5262;59.958;17.726;2023-12-20T03:54:40;-3.50;99.90
10431;DHT22;5262;59.958;17.726;2023-12-20T03:57:07;-3.60;99.90
10431;DHT22;5262;59.958;17.726;2023-12-20T03:59:37;-3.60;99.90
10431;DHT22;5262;59.958;17.726;2023-12-20T04:02:03;-3.60;99.90
10431;DHT22;5262;59.958;17.726;2023-12-20T04:04:29;-3.60;99.90
10431;DHT22;5262;59.958;17.726;2023-12-20T04:06:55;-3.60;99.90
10431;DHT22;5262;59.958;17.726;2023-12-20T04:09:20;-3.60;99.90
10431;DHT22;5262;59.958;17.726;2023-12-20T04:11:46;-3.60;99.90
10431;DHT22;5262;59.958;17.726;2023-12-20T04:14:12;-3.60;99.90
10431;DHT22;5262;59.958;17.726;2023-12-20T04:16:37;-3.60;99.90
10431;DHT22;5262;59.958;17.726;2023-12-20T04:19:04;-3.60;99.90
10431;DHT22;5262;59.958;17.726;2023-12-20T04:21:30;-3.60;99.90
10431;DHT22;5262;59.958;17.726;2023-12-20T04:23:55;-3.60;99.90
10431;DHT22;5262;59.958;17.726;2023-12-20T04:26:21;-3.50;99.90
10431;DHT22;5262;59.958;17.726;2023-12-20T04:28:46;-3.50;99.90
10431;DHT22;5262;59.958;17.726;2023-12-20T04:31:12;-3.60;99.90
10431;DHT22;5262;59.958;17.726;2023-12-20T04:33:38;-3.60;99.90
10431;DHT22;5262;59.958;17.726;2023-12-20T04:36:03;-3.60;99.90
10431;DHT22;5262;59.958;17.726;2023-12-20T04:38:30;-3.60;99.90
10431;DHT22;5262;59.958;17.726;2023-12-20T04:40:55;-3.70;99.90
10431;DHT22;5262;59.958;17.726;2023-12-20T04:43:21;-3.70;99.90
10431;DHT22;5262;59.958;17.726;2023-12-20T04:45:46;-3.70;99.90
10431;DHT22;5262;59.958;17.726;2023-12-20T04:48:12;-3.80;99.90
10431;DHT22;5262;59.958;17.726;2023-12-20T04:50:38;-3.80;99.90
10431;DHT22;5262;59.958;17.726;2023-12-20T04:53:03;-3.70;99.90
10431;DHT22;5262;59.958;17.726;2023-12-20T04:55:29;-3.70;99.90
10431;DHT22;5262;59.958;17.726;2023-12-20T04:57:55;-3.70;99.90
10431;DHT22;5262;59.958;17.726;2023-12-20T05:00:21;-3.70;99.90
10431;DHT22;5262;59.958;17.726;2023-12-20T05:02:47;-3.60;99.90
10431;DHT22;5262;59.958;17.726;2023-12-20T05:05:13;-3.70;99.90
10431;DHT22;5262;59.958;17.726;2023-12-20T05:07:40;-3.70;99.90
10431;DHT22;5262;59.958;17.726;2023-12-20T05:10:06;-3.70;99.90
10431;DHT22;5262;59.958;17.726;2023-12-20T05:12:33;-3.60;99.90
10431;DHT22;5262;59.958;17.726;2023-12-20T05:14:59;-3.60;99.90
10431;DHT22;5262;59.958;17.726;2023-12-20T05:17:25;-3.60;99.90
10431;DHT22;5262;59.958;17.726;2023-12-20T05:19:51;-3.60;99.90
10431;DHT22;5262;59.958;17.726;2023-12-20T05:22:17;-3.60;99.90
10431;DHT22;5262;59.958;17.726;2023-12-20T05:24:44;-3.50;99.90
10431;DHT22;5262;59.958;17.726;2023-12-20T05:27:09;-3.50;99.90
10431;DHT22;5262;59.958;17.726;2023-12-20T05:29:35;-3.40;99.90
10431;DHT22;5262;59.958;17.726;2023-12-20T05:32:00;-3.40;99.90
10431;DHT22;5262;59.958;17.726;2023-12-20T05:34:26;-3.30;99.90
10431;DHT22;5262;59.958;17.726;2023-12-20T05:36:52;-3.20;99.90
10431;DHT22;5262;59.958;17.726;2023-12-20T05:39:17;-3.20;99.90
10431;DHT22;5262;59.958;17.726;2023-12-20T05:41:43;-3.20;99.90
10431;DHT22;5262;59.958;17.726;2023-12-20T05:44:08;-3.20;99.90
10431;DHT22;5262;59.958;17.726;2023-12-20T05:46:34;-3.20;99.90
10431;DHT22;5262;59.958;17.726;2023-12-20T05:49:00;-3.20;99.90
10431;DHT22;5262;59.958;17.726;2023-12-20T05:51:25;-3.20;99.90
10431;DHT22;5262;59.958;17.726;2023-12-20T05:53:51;-3.20;99.90
10431;DHT22;5262;59.958;17.726;2023-12-20T05:56:16;-3.20;99.90
10431;DHT22;5262;59.958;17.726;2023-12-20T05:58:42;-3.10;99.90
10431;DHT22;5262;59.958;17.726;2023-12-20T06:01:09;-3.10;99.90
10431;DHT22;5262;59.958;17.726;2023-12-20T06:03:34;-3.00;99.90
10431;DHT22;5262;59.958;17.726;2023-12-20T06:06:07;-3.00;99.90
10431;DHT22;5262;59.958;17.726;2023-12-20T06:08:33;-3.00;99.90
10431;DHT22;5262;59.958;17.726;2023-12-20T06:10:58;-3.00;99.90
10431;DHT22;5262;59.958;17.726;2023-12-20T06:13:24;-3.00;99.90
10431;DHT22;5262;59.958;17.726;2023-12-20T06:15:50;-3.00;99.90
10431;DHT22;5262;59.958;17.726;2023-12-20T06:18:16;-3.00;99.90
10431;DHT22;5262;59.958;17.726;2023-12-20T06:20:41;-3.00;99.90
10431;DHT22;5262;59.958;17.726;2023-12-20T06:23:07;-3.00;99.90
10431;DHT22;5262;59.958;17.726;2023-12-20T06:25:33;-3.00;99.90
10431;DHT22;5262;59.958;17.726;2023-12-20T06:27:58;-3.00;99.90
10431;DHT22;5262;59.958;17.726;2023-12-20T06:30:24;-3.00;99.90
10431;DHT22;5262;59.958;17.726;2023-12-20T06:32:50;-3.00;99.90
10431;DHT22;5262;59.958;17.726;2023-12-20T06:35:16;-3.00;99.90
10431;DHT22;5262;59.958;17.726;2023-12-20T06:37:42;-3.00;99.90
10431;DHT22;5262;59.958;17.726;2023-12-20T06:40:09;-3.00;99.90
10431;DHT22;5262;59.958;17.726;2023-12-20T06:42:35;-3.00;99.90
10431;DHT22;5262;59.958;17.726;2023-12-20T06:45:01;-3.00;99.90
10431;DHT22;5262;59.958;17.726;2023-12-20T06:47:27;-3.00;99.90
10431;DHT22;5262;59.958;17.726;2023-12-20T06:49:53;-3.00;99.90
10431;DHT22;5262;59.958;17.726;2023-12-20T06:52:18;-3.00;99.90
10431;DHT22;5262;59.958;17.726;2023-12-20T06:54:44;-3.00;99.90
10431;DHT22;5262;59.958;17.726;2023-12-20T06:57:09;-3.00;99.90
10431;DHT22;5262;59.958;17.726;2023-12-20T06:59:40;-3.00;99.90
10431;DHT22;5262;59.958;17.726;2023-12-20T07:02:06;-3.00;99.90
10431;DHT22;5262;59.958;17.726;2023-12-20T07:04:31;-2.90;99.90
10431;DHT22;5262;59.958;17.726;2023-12-20T07:06:57;-2.90;99.90
10431;DHT22;5262;59.958;17.726;2023-12-20T07:09:26;-2.90;99.90
10431;DHT22;5262;59.958;17.726;2023-12-20T07:11:52;-2.90;99.90
10431;DHT22;5262;59.958;17.726;2023-12-20T07:14:18;-2.90;99.90
10431;DHT22;5262;59.958;17.726;2023-12-20T07:16:43;-2.90;99.90
10431;DHT22;5262;59.958;17.726;2023-12-20T07:19:09;-2.90;99.90
10431;DHT22;5262;59.958;17.726;2023-12-20T07:21:34;-2.90;99.90
10431;DHT22;5262;59.958;17.726;2023-12-20T07:24:00;-2.90;99.90
10431;DHT22;5262;59.958;17.726;2023-12-20T07:26:27;-2.90;99.90
10431;DHT22;5262;59.958;17.726;2023-12-20T07:28:53;-2.90;99.90
10431;DHT22;5262;59.958;17.726;2023-12-20T07:31:18;-2.80;99.90
10431;DHT22;5262;59.958;17.726;2023-12-20T07:33:44;-2.80;99.90
10431;DHT22;5262;59.958;17.726;2023-12-20T07:36:10;-2.80;99.90
10431;DHT22;5262;59.958;17.726;2023-12-20T07:38:35;-2.90;99.90
10431;DHT22;5262;59.958;17.726;2023-12-20T07:41:01;-2.90;99.90
10431;DHT22;5262;59.958;17.726;2023-12-20T07:43:27;-3.00;99.90
10431;DHT22;5262;59.958;17.726;2023-12-20T07:45:52;-3.00;99.90
10431;DHT22;5262;59.958;17.726;2023-12-20T07:48:18;-3.00;99.90
10431;DHT22;5262;59.958;17.726;2023-12-20T07:50:43;-3.00;99.90
10431;DHT22;5262;59.958;17.726;2023-12-20T07:53:09;-3.00;99.90
10431;DHT22;5262;59.958;17.726;2023-12-20T07:55:35;-3.00;99.90
10431;DHT22;5262;59.958;17.726;2023-12-20T07:58:00;-3.10;99.90
10431;DHT22;5262;59.958;17.726;2023-12-20T08:00:27;-3.10;99.90
10431;DHT22;5262;59.958;17.726;2023-12-20T08:02:52;-3.00;99.90
10431;DHT22;5262;59.958;17.726;2023-12-20T08:05:18;-3.00;99.90
10431;DHT22;5262;59.958;17.726;2023-12-20T08:07:44;-2.90;99.90
10431;DHT22;5262;59.958;17.726;2023-12-20T08:10:10;-2.90;99.90
10431;DHT22;5262;59.958;17.726;2023-12-20T08:12:35;-2.80;99.90
10431;DHT22;5262;59.958;17.726;2023-12-20T08:15:01;-2.80;99.90
10431;DHT22;5262;59.958;17.726;2023-12-20T08:17:27;-2.70;99.90
10431;DHT22;5262;59.958;17.726;2023-12-20T08:19:53;-2.60;99.90
10431;DHT22;5262;59.958;17.726;2023-12-20T08:22:18;-2.50;99.90
10431;DHT22;5262;59.958;17.726;2023-12-20T08:24:44;-2.50;99.90
10431;DHT22;5262;59.958;17.726;2023-12-20T08:27:09;-2.40;99.90
10431;DHT22;5262;59.958;17.726;2023-12-20T08:29:35;-2.40;99.90
10431;DHT22;5262;59.958;17.726;2023-12-20T08:32:01;-2.30;99.90
10431;DHT22;5262;59.958;17.726;2023-12-20T08:34:27;-2.30;99.90
10431;DHT22;5262;59.958;17.726;2023-12-20T08:36:53;-2.20;99.90
10431;DHT22;5262;59.958;17.726;2023-12-20T08:39:19;-2.20;99.90
10431;DHT22;5262;59.958;17.726;2023-12-20T08:41:44;-2.20;99.90
10431;DHT22;5262;59.958;17.726;2023-12-20T08:44:10;-2.20;99.90
10431;DHT22;5262;59.958;17.726;2023-12-20T08:46:36;-2.10;99.90
10431;DHT22;5262;59.958;17.726;2023-12-20T08:49:02;-2.10;99.90
10431;DHT22;5262;59.958;17.726;2023-12-20T08:51:27;-2.00;99.90
10431;DHT22;5262;59.958;17.726;2023-12-20T08:53:53;-2.00;99.90
10431;DHT22;5262;59.958;17.726;2023-12-20T08:56:20;-2.00;99.90
10431;DHT22;5262;59.958;17.726;2023-12-20T08:58:46;-1.90;99.90
10431;DHT22;5262;59.958;17.726;2023-12-20T09:01:12;-1.90;99.90
10431;DHT22;5262;59.958;17.726;2023-12-20T09:03:39;-1.90;99.90
10431;DHT22;5262;59.958;17.726;2023-12-20T09:06:05;-2.00;99.90
10431;DHT22;5262;59.958;17.726;2023-12-20T09:08:31;-2.00;99.90
10431;DHT22;5262;59.958;17.726;2023-12-20T09:10:56;-1.90;99.90
10431;DHT22;5262;59.958;17.726;2023-12-20T09:13:22;-1.80;99.90
10431;DHT22;5262;59.958;17.726;2023-12-20T09:15:56;-1.80;99.90
10431;DHT22;5262;59.958;17.726;2023-12-20T09:18:21;-1.90;99.90
10431;DHT22;5262;59.958;17.726;2023-12-20T09:20:47;-1.80;99.90
10431;DHT22;5262;59.958;17.726;2023-12-20T09:23:13;-1.80;99.90
10431;DHT22;5262;59.958;17.726;2023-12-20T09:25:38;-1.80;99.90
10431;DHT22;5262;59.958;17.726;2023-12-20T09:28:04;-1.80;99.90
10431;DHT22;5262;59.958;17.726;2023-12-20T09:30:30;-1.80;99.90
10431;DHT22;5262;59.958;17.726;2023-12-20T09:32:57;-1.80;99.90
10431;DHT22;5262;59.958;17.726;2023-12-20T09:35:23;-1.70;99.90
10431;DHT22;5262;59.958;17.726;2023-12-20T09:37:49;-1.70;99.90
10431;DHT22;5262;59.958;17.726;2023-12-20T09:40:18;-1.70;99.90
10431;DHT22;5262;59.958;17.726;2023-12-20T09:43:08;-1.70;99.90
10431;DHT22;5262;59.958;17.726;2023-12-20T09:45:35;-1.70;99.90
10431;DHT22;5262;59.958;17.726;2023-12-20T09:48:01;-1.70;99.90
10431;DHT22;5262;59.958;17.726;2023-12-20T09:50:30;-1.70;99.90
10431;DHT22;5262;59.958;17.726;2023-12-20T09:52:58;-1.70;99.90
10431;DHT22;5262;59.958;17.726;2023-12-20T09:55:27;-1.70;99.90
10431;DHT22;5262;59.958;17.726;2023-12-20T09:57:53;-1.70;99.90
10431;DHT22;5262;59.958;17.726;2023-12-20T10:00:19;-1.80;99.90
10431;DHT22;5262;59.958;17.726;2023-12-20T10:02:57;-1.80;99.90
10431;DHT22;5262;59.958;17.726;2023-12-20T10:05:27;-1.80;99.90
10431;DHT22;5262;59.958;17.726;2023-12-20T10:07:53;-1.80;99.90
10431;DHT22;5262;59.958;17.726;2023-12-20T10:10:18;-1.70;99.90
10431;DHT22;5262;59.958;17.726;2023-12-20T10:13:06;-1.70;99.90
10431;DHT22;5262;59.958;17.726;2023-12-20T10:15:33;-1.70;99.90
10431;DHT22;5262;59.958;17.726;2023-12-20T10:18:00;-1.70;99.90
10431;DHT22;5262;59.958;17.726;2023-12-20T10:20:26;-1.60;99.90
10431;DHT22;5262;59.958;17.726;2023-12-20T10:22:55;-1.60;99.90
10431;DHT22;5262;59.958;17.726;2023-12-20T10:25:21;-1.60;99.90
10431;DHT22;5262;59.958;17.726;2023-12-20T10:27:47;-1.70;99.90
10431;DHT22;5262;59.958;17.726;2023-12-20T10:30:13;-1.60;99.90
10431;DHT22;5262;59.958;17.726;2023-12-20T10:32:39;-1.60;99.90
10431;DHT22;5262;59.958;17.726;2023-12-20T10:35:06;-1.60;99.90
10431;DHT22;5262;59.958;17.726;2023-12-20T10:37:36;-1.50;99.90
10431;DHT22;5262;59.958;17.726;2023-12-20T10:40:04;-1.50;99.90
10431;DHT22;5262;59.958;17.726;2023-12-20T10:42:31;-1.50;99.90
10431;DHT22;5262;59.958;17.726;2023-12-20T10:44:59;-1.50;99.90
10431;DHT22;5262;59.958;17.726;2023-12-20T10:47:25;-1.50;99.90
10431;DHT22;5262;59.958;17.726;2023-12-20T10:49:54;-1.40;99.90
10431;DHT22;5262;59.958;17.726;2023-12-20T10:52:23;-1.40;99.90
10431;DHT22;5262;59.958;17.726;2023-12-20T10:54:49;-1.30;99.90
10431;DHT22;5262;59.958;17.726;2023-12-20T10:57:17;-1.30;99.90
10431;DHT22;5262;59.958;17.726;2023-12-20T10:59:45;-1.30;99.90
10431;DHT22;5262;59.958;17.726;2023-12-20T11:02:14;-1.30;99.90
10431;DHT22;5262;59.958;17.726;2023-12-20T11:04:51;-1.30;99.90
10431;DHT22;5262;59.958;17.726;2023-12-20T11:07:24;-1.30;99.90
10431;DHT22;5262;59.958;17.726;2023-12-20T11:10:31;-1.30;99.90
10431;DHT22;5262;59.958;17.726;2023-12-20T11:12:53;-1.30;99.90
10431;DHT22;5262;59.958;17.726;2023-12-20T11:15:20;-1.30;99.90
10431;DHT22;5262;59.958;17.726;2023-12-20T11:17:47;-1.30;99.90
10431;DHT22;5262;59.958;17.726;2023-12-20T11:20:38;-1.30;99.90
10431;DHT22;5262;59.958;17.726;2023-12-20T11:23:04;-1.40;99.90
10431;DHT22;5262;59.958;17.726;2023-12-20T11:25:53;-1.40;99.90
10431;DHT22;5262;59.958;17.726;2023-12-20T11:28:23;-1.40;99.90
10431;DHT22;5262;59.958;17.726;2023-12-20T11:30:52;-1.40;99.90
10431;DHT22;5262;59.958;17.726;2023-12-20T11:33:26;-1.40;99.90
10431;DHT22;5262;59.958;17.726;2023-12-20T11:35:52;-1.40;99.90
10431;DHT22;5262;59.958;17.726;2023-12-20T11:38:21;-1.30;99.90
10431;DHT22;5262;59.958;17.726;2023-12-20T11:40:49;-1.30;99.90
10431;DHT22;5262;59.958;17.726;2023-12-20T11:43:38;-1.40;99.90
10431;DHT22;5262;59.958;17.726;2023-12-20T11:46:08;-1.40;99.90
10431;DHT22;5262;59.958;17.726;2023-12-20T11:48:37;-1.40;99.90
10431;DHT22;5262;59.958;17.726;2023-12-20T11:51:08;-1.40;99.90
10431;DHT22;5262;59.958;17.726;2023-12-20T11:53:34;-1.20;99.90
10431;DHT22;5262;59.958;17.726;2023-12-20T11:56:00;-1.20;99.90
10431;DHT22;5262;59.958;17.726;2023-12-20T11:58:28;-1.30;99.90
10431;DHT22;5262;59.958;17.726;2023-12-20T12:00:55;-1.30;99.90
10431;DHT22;5262;59.958;17.726;2023-12-20T12:03:21;-1.30;99.90
10431;DHT22;5262;59.958;17.726;2023-12-20T12:05:50;-1.30;99.90
10431;DHT22;5262;59.958;17.726;2023-12-20T12:08:17;-1.30;99.90
10431;DHT22;5262;59.958;17.726;2023-12-20T12:10:45;-1.30;99.90
10431;DHT22;5262;59.958;17.726;2023-12-20T12:13:11;-1.30;99.90
10431;DHT22;5262;59.958;17.726;2023-12-20T12:15:37;-1.30;99.90
10431;DHT22;5262;59.958;17.726;2023-12-20T12:18:03;-1.30;99.90
10431;DHT22;5262;59.958;17.726;2023-12-20T12:20:30;-1.40;99.90
10431;DHT22;5262;59.958;17.726;2023-12-20T12:23:04;-1.40;99.90
10431;DHT22;5262;59.958;17.726;2023-12-20T12:25:31;-1.30;99.90
10431;DHT22;5262;59.958;17.726;2023-12-20T12:27:57;-1.30;99.90
10431;DHT22;5262;59.958;17.726;2023-12-20T12:30:23;-1.30;99.90
10431;DHT22;5262;59.958;17.726;2023-12-20T12:32:50;-1.30;99.90
10431;DHT22;5262;59.958;17.726;2023-12-20T12:35:17;-1.30;99.90
10431;DHT22;5262;59.958;17.726;2023-12-20T12:37:43;-1.30;99.90
10431;DHT22;5262;59.958;17.726;2023-12-20T12:40:14;-1.30;99.90
10431;DHT22;5262;59.958;17.726;2023-12-20T12:42:41;-1.30;99.90
10431;DHT22;5262;59.958;17.726;2023-12-20T12:45:07;-1.30;99.90
10431;DHT22;5262;59.958;17.726;2023-12-20T12:47:36;-1.30;99.90
10431;DHT22;5262;59.958;17.726;2023-12-20T12:50:02;-1.30;99.90
10431;DHT22;5262;59.958;17.726;2023-12-20T12:52:28;-1.30;99.90
10431;DHT22;5262;59.958;17.726;2023-12-20T12:54:53;-1.30;99.90
10431;DHT22;5262;59.958;17.726;2023-12-20T12:57:19;-1.30;99.90
10431;DHT22;5262;59.958;17.726;2023-12-20T12:59:45;-1.30;99.90
10431;DHT22;5262;59.958;17.726;2023-12-20T13:02:12;-1.30;99.90
10431;DHT22;5262;59.958;17.726;2023-12-20T13:04:39;-1.30;99.90
10431;DHT22;5262;59.958;17.726;2023-12-20T13:07:05;-1.30;99.90
10431;DHT22;5262;59.958;17.726;2023-12-20T13:09:31;-1.30;99.90
10431;DHT22;5262;59.958;17.726;2023-12-20T13:11:56;-1.30;99.90
10431;DHT22;5262;59.958;17.726;2023-12-20T13:14:22;-1.30;99.90
10431;DHT22;5262;59.958;17.726;2023-12-20T13:16:48;-1.30;99.90
10431;DHT22;5262;59.958;17.726;2023-12-20T13:19:14;-1.20;99.90
10431;DHT22;5262;59.958;17.726;2023-12-20T13:21:40;-1.30;99.90
10431;DHT22;5262;59.958;17.726;2023-12-20T13:24:05;-1.30;99.90
10431;DHT22;5262;59.958;17.726;2023-12-20T13:26:31;-1.30;99.90
10431;DHT22;5262;59.958;17.726;2023-12-20T13:28:58;-1.30;99.90
10431;DHT22;5262;59.958;17.726;2023-12-20T13:31:23;-1.30;99.90
10431;DHT22;5262;59.958;17.726;2023-12-20T13:33:49;-1.30;99.90
10431;DHT22;5262;59.958;17.726;2023-12-20T13:36:15;-1.30;99.90
10431;DHT22;5262;59.958;17.726;2023-12-20T13:38:40;-1.30;99.90
10431;DHT22;5262;59.958;17.726;2023-12-20T13:41:06;-1.30;99.90
10431;DHT22;5262;59.958;17.726;2023-12-20T13:43:32;-1.30;99.90
10431;DHT22;5262;59.958;17.726;2023-12-20T13:46:00;-1.30;99.90
10431;DHT22;5262;59.958;17.726;2023-12-20T13:48:26;-1.30;99.90
10431;DHT22;5262;59.958;17.726;2023-12-20T13:50:52;-1.30;99.90
10431;DHT22;5262;59.958;17.726;2023-12-20T13:53:17;-1.30;99.90
10431;DHT22;5262;59.958;17.726;2023-12-20T13:55:44;-1.40;99.90
10431;DHT22;5262;59.958;17.726;2023-12-20T13:58:10;-1.30;99.90
10431;DHT22;5262;59.958;17.726;2023-12-20T14:00:36;-1.30;99.90
10431;DHT22;5262;59.958;17.726;2023-12-20T14:03:03;-1.40;99.90
10431;DHT22;5262;59.958;17.726;2023-12-20T14:05:29;-1.30;99.90
10431;DHT22;5262;59.958;17.726;2023-12-20T14:07:55;-1.40;99.90
10431;DHT22;5262;59.958;17.726;2023-12-20T14:10:23;-1.40;99.90
10431;DHT22;5262;59.958;17.726;2023-12-20T14:12:49;-1.40;99.90
10431;DHT22;5262;59.958;17.726;2023-12-20T14:15:15;-1.40;99.90
10431;DHT22;5262;59.958;17.726;2023-12-20T14:17:41;-1.40;99.90
10431;DHT22;5262;59.958;17.726;2023-12-20T14:20:10;-1.40;99.90
10431;DHT22;5262;59.958;17.726;2023-12-20T14:22:37;-1.40;99.90
10431;DHT22;5262;59.958;17.726;2023-12-20T14:25:04;-1.40;99.90
10431;DHT22;5262;59.958;17.726;2023-12-20T14:27:30;-1.40;99.90
10431;DHT22;5262;59.958;17.726;2023-12-20T14:29:55;-1.50;99.90
10431;DHT22;5262;59.958;17.726;2023-12-20T14:32:21;-1.50;99.90
10431;DHT22;5262;59.958;17.726;2023-12-20T14:34:47;-1.50;99.90
10431;DHT22;5262;59.958;17.726;2023-12-20T14:37:13;-1.50;99.90
10431;DHT22;5262;59.958;17.726;2023-12-20T14:39:38;-1.50;99.90
10431;DHT22;5262;59.958;17.726;2023-12-20T14:42:07;-1.50;99.90
10431;DHT22;5262;59.958;17.726;2023-12-20T14:44:37;-1.50;99.90
10431;DHT22;5262;59.958;17.726;2023-12-20T14:47:03;-1.60;99.90
10431;DHT22;5262;59.958;17.726;2023-12-20T14:49:30;-1.50;99.90
10431;DHT22;5262;59.958;17.726;2023-12-20T14:51:55;-1.50;99.90
10431;DHT22;5262;59.958;17.726;2023-12-20T14:54:21;-1.60;99.90
10431;DHT22;5262;59.958;17.726;2023-12-20T14:56:47;-1.50;99.90
10431;DHT22;5262;59.958;17.726;2023-12-20T14:59:13;-1.60;99.90
10431;DHT22;5262;59.958;17.726;2023-12-20T15:01:39;-1.50;99.90
10431;DHT22;5262;59.958;17.726;2023-12-20T15:04:08;-1.50;99.90
10431;DHT22;5262;59.958;17.726;2023-12-20T15:06:34;-1.50;99.90
10431;DHT22;5262;59.958;17.726;2023-12-20T15:09:00;-1.50;99.90
10431;DHT22;5262;59.958;17.726;2023-12-20T15:11:26;-1.60;99.90
10431;DHT22;5262;59.958;17.726;2023-12-20T15:13:52;-1.60;99.90
10431;DHT22;5262;59.958;17.726;2023-12-20T15:16:22;-1.50;99.90
10431;DHT22;5262;59.958;17.726;2023-12-20T15:18:48;-1.60;99.90
10431;DHT22;5262;59.958;17.726;2023-12-20T15:21:15;-1.60;99.90
10431;DHT22;5262;59.958;17.726;2023-12-20T15:23:40;-1.60;99.90
10431;DHT22;5262;59.958;17.726;2023-12-20T15:26:20;-1.60;99.90